sensor_id;sensor_type;location;lat;lon;timestamp;P1;durP1;ratioP1;P2;durP2;ratioP2
47922;SDS011;33688;44.354;9.228;2023-03-23T00:02:19;2.00;;;1.30;;
47922;SDS011;33688;44.354;9.228;2023-03-23T00:04:51;1.42;;;1.20;;
47922;SDS011;33688;44.354;9.228;2023-03-23T00:07:19;1.05;;;0.95;;
47922;SDS011;33688;44.354;9.228;2023-03-23T00:09:48;1.20;;;1.10;;
47922;SDS011;33688;44.354;9.228;2023-03-23T00:12:23;1.00;;;0.90;;
47922;SDS011;33688;44.354;9.228;2023-03-23T00:17:44;1.23;;;1.13;;
47922;SDS011;33688;44.354;9.228;2023-03-23T00:20:10;1.20;;;1.10;;
47922;SDS011;33688;44.354;9.228;2023-03-23T00:22:37;1.40;;;1.30;;
47922;SDS011;33688;44.354;9.228;2023-03-23T00:25:04;1.48;;;1.20;;
47922;SDS011;33688;44.354;9.228;2023-03-23T00:27:30;1.73;;;1.27;;
47922;SDS011;33688;44.354;9.228;2023-03-23T00:29:57;1.30;;;1.05;;
47922;SDS011;33688;44.354;9.228;2023-03-23T00:32:23;2.33;;;1.38;;
47922;SDS011;33688;44.354;9.228;2023-03-23T00:34:53;2.28;;;1.50;;
47922;SDS011;33688;44.354;9.228;2023-03-23T00:37:24;1.58;;;1.13;;
47922;SDS011;33688;44.354;9.228;2023-03-23T00:39:51;1.48;;;1.10;;
47922;SDS011;33688;44.354;9.228;2023-03-23T00:42:22;1.55;;;1.40;;
47922;SDS011;33688;44.354;9.228;2023-03-23T00:44:48;1.38;;;1.20;;
47922;SDS011;33688;44.354;9.228;2023-03-23T00:47:16;1.20;;;0.98;;
47922;SDS011;33688;44.354;9.228;2023-03-23T00:49:44;1.35;;;1.00;;
47922;SDS011;33688;44.354;9.228;2023-03-23T00:52:10;1.10;;;1.00;;
47922;SDS011;33688;44.354;9.228;2023-03-23T00:54:38;1.38;;;1.27;;
47922;SDS011;33688;44.354;9.228;2023-03-23T00:57:04;1.67;;;1.10;;
47922;SDS011;33688;44.354;9.228;2023-03-23T00:59:31;1.02;;;0.95;;
47922;SDS011;33688;44.354;9.228;2023-03-23T01:01:57;0.90;;;0.90;;
47922;SDS011;33688;44.354;9.228;2023-03-23T01:04:22;2.00;;;1.33;;
47922;SDS011;33688;44.354;9.228;2023-03-23T01:06:48;1.13;;;1.02;;
47922;SDS011;33688;44.354;9.228;2023-03-23T01:09:15;1.55;;;1.45;;
47922;SDS011;33688;44.354;9.228;2023-03-23T01:11:42;2.50;;;1.38;;
47922;SDS011;33688;44.354;9.228;2023-03-23T01:14:11;1.42;;;1.30;;
47922;SDS011;33688;44.354;9.228;2023-03-23T01:16:38;1.52;;;0.93;;
47922;SDS011;33688;44.354;9.228;2023-03-23T01:19:04;1.20;;;1.10;;
47922;SDS011;33688;44.354;9.228;2023-03-23T01:21:30;1.30;;;1.20;;
47922;SDS011;33688;44.354;9.228;2023-03-23T01:23:57;2.55;;;1.25;;
47922;SDS011;33688;44.354;9.228;2023-03-23T01:26:25;1.35;;;1.20;;
47922;SDS011;33688;44.354;9.228;2023-03-23T01:28:53;1.25;;;1.15;;
47922;SDS011;33688;44.354;9.228;2023-03-23T01:31:21;2.05;;;1.30;;
47922;SDS011;33688;44.354;9.228;2023-03-23T01:33:49;1.20;;;0.90;;
47922;SDS011;33688;44.354;9.228;2023-03-23T01:36:18;1.20;;;1.10;;
47922;SDS011;33688;44.354;9.228;2023-03-23T01:38:46;1.52;;;1.30;;
47922;SDS011;33688;44.354;9.228;2023-03-23T01:41:14;1.58;;;1.23;;
47922;SDS011;33688;44.354;9.228;2023-03-23T01:43:53;1.48;;;1.30;;
47922;SDS011;33688;44.354;9.228;2023-03-23T01:46:21;1.20;;;1.10;;
47922;SDS011;33688;44.354;9.228;2023-03-23T01:48:48;1.42;;;1.33;;
47922;SDS011;33688;44.354;9.228;2023-03-23T01:51:16;3.70;;;1.23;;
47922;SDS011;33688;44.354;9.228;2023-03-23T01:53:52;1.48;;;0.88;;
47922;SDS011;33688;44.354;9.228;2023-03-23T01:56:21;1.10;;;1.00;;
47922;SDS011;33688;44.354;9.228;2023-03-23T01:58:52;1.00;;;0.90;;
47922;SDS011;33688;44.354;9.228;2023-03-23T02:01:19;1.23;;;0.90;;
47922;SDS011;33688;44.354;9.228;2023-03-23T02:03:47;1.52;;;1.17;;
47922;SDS011;33688;44.354;9.228;2023-03-23T02:06:14;1.33;;;1.23;;
47922;SDS011;33688;44.354;9.228;2023-03-23T02:08:58;1.15;;;1.00;;
47922;SDS011;33688;44.354;9.228;2023-03-23T02:11:24;1.40;;;1.27;;
47922;SDS011;33688;44.354;9.228;2023-03-23T02:13:49;3.22;;;1.10;;
47922;SDS011;33688;44.354;9.228;2023-03-23T02:19:01;1.50;;;1.20;;
47922;SDS011;33688;44.354;9.228;2023-03-23T02:22:04;1.65;;;1.17;;
47922;SDS011;33688;44.354;9.228;2023-03-23T02:32:58;1.80;;;0.98;;
47922;SDS011;33688;44.354;9.228;2023-03-23T02:35:54;1.02;;;0.95;;
47922;SDS011;33688;44.354;9.228;2023-03-23T02:38:32;4.32;;;1.00;;
47922;SDS011;33688;44.354;9.228;2023-03-23T02:41:02;1.38;;;1.23;;
47922;SDS011;33688;44.354;9.228;2023-03-23T02:43:29;1.13;;;1.02;;
47922;SDS011;33688;44.354;9.228;2023-03-23T02:45:58;1.27;;;1.00;;
47922;SDS011;33688;44.354;9.228;2023-03-23T02:48:28;1.58;;;1.30;;
47922;SDS011;33688;44.354;9.228;2023-03-23T02:50:56;1.30;;;1.00;;
47922;SDS011;33688;44.354;9.228;2023-03-23T02:53:25;1.10;;;1.00;;
47922;SDS011;33688;44.354;9.228;2023-03-23T02:55:52;2.25;;;0.77;;
47922;SDS011;33688;44.354;9.228;2023-03-23T02:58:24;0.80;;;0.80;;
47922;SDS011;33688;44.354;9.228;2023-03-23T03:00:50;1.30;;;0.90;;
47922;SDS011;33688;44.354;9.228;2023-03-23T03:03:22;1.20;;;0.95;;
47922;SDS011;33688;44.354;9.228;2023-03-23T03:11:20;0.60;;;0.60;;
47922;SDS011;33688;44.354;9.228;2023-03-23T03:14:02;1.73;;;0.97;;
47922;SDS011;33688;44.354;9.228;2023-03-23T03:19:29;0.90;;;0.90;;
47922;SDS011;33688;44.354;9.228;2023-03-23T03:22:05;1.92;;;1.08;;
47922;SDS011;33688;44.354;9.228;2023-03-23T03:24:38;0.70;;;0.70;;
47922;SDS011;33688;44.354;9.228;2023-03-23T03:27:10;0.85;;;0.85;;
47922;SDS011;33688;44.354;9.228;2023-03-23T03:30:03;1.42;;;1.02;;
47922;SDS011;33688;44.354;9.228;2023-03-23T03:32:31;0.93;;;0.82;;
47922;SDS011;33688;44.354;9.228;2023-03-23T03:35:02;1.38;;;0.70;;
47922;SDS011;33688;44.354;9.228;2023-03-23T03:37:35;1.23;;;0.82;;
47922;SDS011;33688;44.354;9.228;2023-03-23T03:40:05;0.88;;;0.88;;
47922;SDS011;33688;44.354;9.228;2023-03-23T03:42:37;1.02;;;0.93;;
47922;SDS011;33688;44.354;9.228;2023-03-23T03:45:03;0.82;;;0.82;;
47922;SDS011;33688;44.354;9.228;2023-03-23T03:47:29;1.05;;;0.95;;
47922;SDS011;33688;44.354;9.228;2023-03-23T03:49:54;1.35;;;0.90;;
47922;SDS011;33688;44.354;9.228;2023-03-23T03:52:20;1.17;;;0.82;;
47922;SDS011;33688;44.354;9.228;2023-03-23T03:54:46;1.05;;;0.88;;
47922;SDS011;33688;44.354;9.228;2023-03-23T03:57:12;1.45;;;0.93;;
47922;SDS011;33688;44.354;9.228;2023-03-23T04:00:06;1.30;;;0.90;;
47922;SDS011;33688;44.354;9.228;2023-03-23T04:02:47;1.10;;;0.77;;
47922;SDS011;33688;44.354;9.228;2023-03-23T04:07:54;1.02;;;0.90;;
47922;SDS011;33688;44.354;9.228;2023-03-23T04:13:17;1.30;;;1.20;;
47922;SDS011;33688;44.354;9.228;2023-03-23T04:16:02;0.85;;;0.82;;
47922;SDS011;33688;44.354;9.228;2023-03-23T04:18:30;1.00;;;0.85;;
47922;SDS011;33688;44.354;9.228;2023-03-23T04:20:58;0.60;;;0.60;;
47922;SDS011;33688;44.354;9.228;2023-03-23T04:23:25;1.20;;;1.10;;
47922;SDS011;33688;44.354;9.228;2023-03-23T04:25:53;1.13;;;0.77;;
47922;SDS011;33688;44.354;9.228;2023-03-23T04:28:24;1.17;;;0.82;;
47922;SDS011;33688;44.354;9.228;2023-03-23T04:31:13;1.25;;;0.90;;
47922;SDS011;33688;44.354;9.228;2023-03-23T04:33:44;1.05;;;0.95;;
47922;SDS011;33688;44.354;9.228;2023-03-23T04:39:08;1.50;;;1.08;;
47922;SDS011;33688;44.354;9.228;2023-03-23T04:41:36;1.60;;;0.90;;
47922;SDS011;33688;44.354;9.228;2023-03-23T04:44:20;0.70;;;0.70;;
47922;SDS011;33688;44.354;9.228;2023-03-23T04:47:00;0.60;;;0.60;;
47922;SDS011;33688;44.354;9.228;2023-03-23T04:49:29;1.75;;;0.80;;
47922;SDS011;33688;44.354;9.228;2023-03-23T04:52:04;0.82;;;0.63;;
47922;SDS011;33688;44.354;9.228;2023-03-23T04:54:57;1.10;;;0.93;;
47922;SDS011;33688;44.354;9.228;2023-03-23T04:57:24;0.85;;;0.80;;
47922;SDS011;33688;44.354;9.228;2023-03-23T05:00:14;0.52;;;0.52;;
47922;SDS011;33688;44.354;9.228;2023-03-23T05:02:47;1.88;;;0.82;;
47922;SDS011;33688;44.354;9.228;2023-03-23T05:05:18;1.67;;;1.00;;
47922;SDS011;33688;44.354;9.228;2023-03-23T05:07:45;0.82;;;0.80;;
47922;SDS011;33688;44.354;9.228;2023-03-23T05:10:13;0.80;;;0.77;;
47922;SDS011;33688;44.354;9.228;2023-03-23T05:12:42;1.00;;;0.90;;
47922;SDS011;33688;44.354;9.228;2023-03-23T05:15:11;0.90;;;0.90;;
47922;SDS011;33688;44.354;9.228;2023-03-23T05:17:38;1.70;;;0.90;;
47922;SDS011;33688;44.354;9.228;2023-03-23T05:20:13;2.45;;;0.82;;
47922;SDS011;33688;44.354;9.228;2023-03-23T05:22:46;0.95;;;0.80;;
47922;SDS011;33688;44.354;9.228;2023-03-23T05:28:18;1.30;;;0.90;;
47922;SDS011;33688;44.354;9.228;2023-03-23T05:30:49;1.38;;;0.90;;
47922;SDS011;33688;44.354;9.228;2023-03-23T05:33:16;0.70;;;0.70;;
47922;SDS011;33688;44.354;9.228;2023-03-23T05:35:48;1.42;;;0.70;;
47922;SDS011;33688;44.354;9.228;2023-03-23T05:38:17;1.05;;;0.82;;
47922;SDS011;33688;44.354;9.228;2023-03-23T05:40:43;1.33;;;1.00;;
47922;SDS011;33688;44.354;9.228;2023-03-23T05:43:15;0.77;;;0.75;;
47922;SDS011;33688;44.354;9.228;2023-03-23T05:46:02;0.55;;;0.52;;
47922;SDS011;33688;44.354;9.228;2023-03-23T05:48:29;0.95;;;0.82;;
47922;SDS011;33688;44.354;9.228;2023-03-23T05:50:55;0.80;;;0.73;;
47922;SDS011;33688;44.354;9.228;2023-03-23T05:53:23;1.20;;;1.10;;
47922;SDS011;33688;44.354;9.228;2023-03-23T05:55:50;1.75;;;0.60;;
47922;SDS011;33688;44.354;9.228;2023-03-23T05:58:29;0.68;;;0.68;;
47922;SDS011;33688;44.354;9.228;2023-03-23T06:00:56;0.82;;;0.80;;
47922;SDS011;33688;44.354;9.228;2023-03-23T06:03:26;2.05;;;1.00;;
47922;SDS011;33688;44.354;9.228;2023-03-23T06:06:12;1.02;;;0.93;;
47922;SDS011;33688;44.354;9.228;2023-03-23T06:08:49;0.93;;;0.82;;
47922;SDS011;33688;44.354;9.228;2023-03-23T06:11:17;0.70;;;0.70;;
47922;SDS011;33688;44.354;9.228;2023-03-23T06:13:57;1.35;;;1.00;;
47922;SDS011;33688;44.354;9.228;2023-03-23T06:16:24;2.20;;;1.00;;
47922;SDS011;33688;44.354;9.228;2023-03-23T06:18:52;0.80;;;0.75;;
47922;SDS011;33688;44.354;9.228;2023-03-23T06:21:26;0.65;;;0.65;;
47922;SDS011;33688;44.354;9.228;2023-03-23T06:23:55;0.60;;;0.60;;
47922;SDS011;33688;44.354;9.228;2023-03-23T06:26:23;0.80;;;0.75;;
47922;SDS011;33688;44.354;9.228;2023-03-23T06:28:59;1.00;;;0.90;;
47922;SDS011;33688;44.354;9.228;2023-03-23T06:31:26;0.70;;;0.70;;
47922;SDS011;33688;44.354;9.228;2023-03-23T06:33:52;0.90;;;0.70;;
47922;SDS011;33688;44.354;9.228;2023-03-23T06:36:24;0.60;;;0.60;;
47922;SDS011;33688;44.354;9.228;2023-03-23T06:39:06;1.55;;;0.88;;
47922;SDS011;33688;44.354;9.228;2023-03-23T06:41:45;0.75;;;0.75;;
47922;SDS011;33688;44.354;9.228;2023-03-23T06:44:11;1.00;;;0.90;;
47922;SDS011;33688;44.354;9.228;2023-03-23T06:46:38;1.33;;;0.80;;
47922;SDS011;33688;44.354;9.228;2023-03-23T06:49:25;1.60;;;0.98;;
47922;SDS011;33688;44.354;9.228;2023-03-23T06:52:17;0.75;;;0.75;;
47922;SDS011;33688;44.354;9.228;2023-03-23T06:54:44;1.38;;;0.98;;
47922;SDS011;33688;44.354;9.228;2023-03-23T06:57:11;0.98;;;0.75;;
47922;SDS011;33688;44.354;9.228;2023-03-23T06:59:36;1.27;;;0.80;;
47922;SDS011;33688;44.354;9.228;2023-03-23T07:02:05;0.98;;;0.95;;
47922;SDS011;33688;44.354;9.228;2023-03-23T07:04:33;1.52;;;0.80;;
47922;SDS011;33688;44.354;9.228;2023-03-23T07:07:05;1.97;;;1.00;;
47922;SDS011;33688;44.354;9.228;2023-03-23T07:09:40;0.95;;;0.80;;
47922;SDS011;33688;44.354;9.228;2023-03-23T07:12:07;0.80;;;0.80;;
47922;SDS011;33688;44.354;9.228;2023-03-23T07:14:40;0.80;;;0.65;;
47922;SDS011;33688;44.354;9.228;2023-03-23T07:17:06;1.83;;;0.98;;
47922;SDS011;33688;44.354;9.228;2023-03-23T07:19:39;1.13;;;0.85;;
47922;SDS011;33688;44.354;9.228;2023-03-23T07:22:06;1.38;;;1.20;;
47922;SDS011;33688;44.354;9.228;2023-03-23T07:24:33;3.40;;;1.70;;
47922;SDS011;33688;44.354;9.228;2023-03-23T07:27:08;3.33;;;1.63;;
47922;SDS011;33688;44.354;9.228;2023-03-23T07:29:36;3.20;;;1.88;;
47922;SDS011;33688;44.354;9.228;2023-03-23T07:32:11;1.48;;;1.38;;
47922;SDS011;33688;44.354;9.228;2023-03-23T07:34:37;3.67;;;1.90;;
47922;SDS011;33688;44.354;9.228;2023-03-23T07:37:12;4.38;;;1.77;;
47922;SDS011;33688;44.354;9.228;2023-03-23T07:39:41;6.63;;;1.70;;
47922;SDS011;33688;44.354;9.228;2023-03-23T07:42:09;3.78;;;1.70;;
47922;SDS011;33688;44.354;9.228;2023-03-23T07:47:27;4.28;;;1.70;;
47922;SDS011;33688;44.354;9.228;2023-03-23T07:49:53;3.13;;;1.73;;
47922;SDS011;33688;44.354;9.228;2023-03-23T07:52:30;5.30;;;1.67;;
47922;SDS011;33688;44.354;9.228;2023-03-23T07:54:57;5.10;;;1.80;;
47922;SDS011;33688;44.354;9.228;2023-03-23T08:00:07;2.58;;;1.67;;
47922;SDS011;33688;44.354;9.228;2023-03-23T08:02:55;5.57;;;1.40;;
47922;SDS011;33688;44.354;9.228;2023-03-23T08:05:31;4.18;;;1.58;;
47922;SDS011;33688;44.354;9.228;2023-03-23T08:08:12;2.45;;;1.70;;
47922;SDS011;33688;44.354;9.228;2023-03-23T08:10:47;7.03;;;1.80;;
47922;SDS011;33688;44.354;9.228;2023-03-23T08:13:32;3.22;;;1.75;;
47922;SDS011;33688;44.354;9.228;2023-03-23T08:16:27;2.60;;;1.52;;
47922;SDS011;33688;44.354;9.228;2023-03-23T08:19:31;2.42;;;1.60;;
47922;SDS011;33688;44.354;9.228;2023-03-23T08:22:37;4.25;;;2.10;;
47922;SDS011;33688;44.354;9.228;2023-03-23T08:25:29;2.65;;;1.98;;
47922;SDS011;33688;44.354;9.228;2023-03-23T08:28:25;5.45;;;1.80;;
47922;SDS011;33688;44.354;9.228;2023-03-23T08:31:23;6.38;;;2.25;;
47922;SDS011;33688;44.354;9.228;2023-03-23T08:33:59;2.05;;;1.58;;
47922;SDS011;33688;44.354;9.228;2023-03-23T08:36:46;2.95;;;1.65;;
47922;SDS011;33688;44.354;9.228;2023-03-23T08:39:11;5.15;;;1.60;;
47922;SDS011;33688;44.354;9.228;2023-03-23T08:41:58;2.67;;;1.92;;
47922;SDS011;33688;44.354;9.228;2023-03-23T08:44:47;2.25;;;1.83;;
47922;SDS011;33688;44.354;9.228;2023-03-23T08:47:34;4.78;;;2.22;;
47922;SDS011;33688;44.354;9.228;2023-03-23T08:50:18;4.78;;;1.80;;
47922;SDS011;33688;44.354;9.228;2023-03-23T08:52:46;4.28;;;1.77;;
47922;SDS011;33688;44.354;9.228;2023-03-23T08:55:30;3.40;;;2.05;;
47922;SDS011;33688;44.354;9.228;2023-03-23T08:58:10;14.98;;;2.28;;
47922;SDS011;33688;44.354;9.228;2023-03-23T09:00:57;6.40;;;2.10;;
47922;SDS011;33688;44.354;9.228;2023-03-23T09:03:46;2.83;;;1.80;;
47922;SDS011;33688;44.354;9.228;2023-03-23T09:06:30;3.08;;;1.92;;
47922;SDS011;33688;44.354;9.228;2023-03-23T09:08:58;2.00;;;1.70;;
47922;SDS011;33688;44.354;9.228;2023-03-23T09:11:26;3.53;;;1.63;;
47922;SDS011;33688;44.354;9.228;2023-03-23T09:13:52;5.80;;;1.95;;
47922;SDS011;33688;44.354;9.228;2023-03-23T09:16:18;2.97;;;1.70;;
47922;SDS011;33688;44.354;9.228;2023-03-23T09:18:44;3.65;;;1.60;;
47922;SDS011;33688;44.354;9.228;2023-03-23T09:21:09;2.55;;;1.80;;
47922;SDS011;33688;44.354;9.228;2023-03-23T09:23:35;5.13;;;1.67;;
47922;SDS011;33688;44.354;9.228;2023-03-23T09:26:01;2.50;;;1.80;;
47922;SDS011;33688;44.354;9.228;2023-03-23T09:28:28;2.72;;;1.42;;
47922;SDS011;33688;44.354;9.228;2023-03-23T09:30:57;4.40;;;2.35;;
47922;SDS011;33688;44.354;9.228;2023-03-23T09:33:22;5.45;;;1.75;;
47922;SDS011;33688;44.354;9.228;2023-03-23T09:35:48;3.72;;;2.08;;
47922;SDS011;33688;44.354;9.228;2023-03-23T09:38:14;2.85;;;1.60;;
47922;SDS011;33688;44.354;9.228;2023-03-23T09:45:50;4.18;;;2.03;;
47922;SDS011;33688;44.354;9.228;2023-03-23T09:51:07;3.88;;;2.33;;
47922;SDS011;33688;44.354;9.228;2023-03-23T09:53:38;8.40;;;1.75;;
47922;SDS011;33688;44.354;9.228;2023-03-23T09:56:13;2.60;;;1.58;;
47922;SDS011;33688;44.354;9.228;2023-03-23T10:01:15;3.95;;;1.52;;
47922;SDS011;33688;44.354;9.228;2023-03-23T10:03:45;3.72;;;1.42;;
47922;SDS011;33688;44.354;9.228;2023-03-23T10:06:14;2.83;;;1.48;;
47922;SDS011;33688;44.354;9.228;2023-03-23T10:08:51;5.13;;;1.73;;
47922;SDS011;33688;44.354;9.228;2023-03-23T10:13:58;3.22;;;1.48;;
47922;SDS011;33688;44.354;9.228;2023-03-23T10:16:26;2.53;;;1.33;;
47922;SDS011;33688;44.354;9.228;2023-03-23T10:21:54;4.82;;;1.38;;
47922;SDS011;33688;44.354;9.228;2023-03-23T10:24:26;3.25;;;1.50;;
47922;SDS011;33688;44.354;9.228;2023-03-23T10:27:05;3.28;;;1.10;;
47922;SDS011;33688;44.354;9.228;2023-03-23T10:29:57;2.45;;;1.60;;
47922;SDS011;33688;44.354;9.228;2023-03-23T10:32:39;5.70;;;1.35;;
47922;SDS011;33688;44.354;9.228;2023-03-23T10:35:39;1.83;;;1.10;;
47922;SDS011;33688;44.354;9.228;2023-03-23T10:38:15;4.10;;;2.00;;
47922;SDS011;33688;44.354;9.228;2023-03-23T10:40:50;8.20;;;1.80;;
47922;SDS011;33688;44.354;9.228;2023-03-23T10:43:20;6.68;;;2.13;;
47922;SDS011;33688;44.354;9.228;2023-03-23T10:45:48;3.38;;;1.52;;
47922;SDS011;33688;44.354;9.228;2023-03-23T10:48:23;4.53;;;2.20;;
47922;SDS011;33688;44.354;9.228;2023-03-23T10:50:56;3.60;;;1.75;;
47922;SDS011;33688;44.354;9.228;2023-03-23T10:55:59;5.10;;;2.05;;
47922;SDS011;33688;44.354;9.228;2023-03-23T10:58:31;4.28;;;2.17;;
47922;SDS011;33688;44.354;9.228;2023-03-23T11:00:59;2.45;;;2.03;;
47922;SDS011;33688;44.354;9.228;2023-03-23T11:06:04;5.63;;;1.80;;
47922;SDS011;33688;44.354;9.228;2023-03-23T11:11:36;3.60;;;2.45;;
47922;SDS011;33688;44.354;9.228;2023-03-23T11:14:17;5.90;;;2.15;;
47922;SDS011;33688;44.354;9.228;2023-03-23T11:17:00;28.00;;;11.20;;
47922;SDS011;33688;44.354;9.228;2023-03-23T11:19:31;213.32;;;80.55;;
47922;SDS011;33688;44.354;9.228;2023-03-23T11:24:34;196.57;;;78.10;;
47922;SDS011;33688;44.354;9.228;2023-03-23T11:27:14;208.48;;;77.28;;
47922;SDS011;33688;44.354;9.228;2023-03-23T11:29:48;167.75;;;68.13;;
47922;SDS011;33688;44.354;9.228;2023-03-23T11:32:23;161.43;;;61.27;;
47922;SDS011;33688;44.354;9.228;2023-03-23T11:34:57;138.75;;;54.25;;
47922;SDS011;33688;44.354;9.228;2023-03-23T11:37:40;125.63;;;50.63;;
47922;SDS011;33688;44.354;9.228;2023-03-23T11:42:42;107.07;;;42.05;;
47922;SDS011;33688;44.354;9.228;2023-03-23T11:47:51;82.65;;;31.85;;
47922;SDS011;33688;44.354;9.228;2023-03-23T11:53:34;69.28;;;27.17;;
47922;SDS011;33688;44.354;9.228;2023-03-23T11:58:34;61.42;;;23.55;;
47922;SDS011;33688;44.354;9.228;2023-03-23T12:01:47;51.13;;;20.13;;
47922;SDS011;33688;44.354;9.228;2023-03-23T12:15:07;33.85;;;13.50;;
47922;SDS011;33688;44.354;9.228;2023-03-23T12:17:47;35.45;;;13.57;;
47922;SDS011;33688;44.354;9.228;2023-03-23T12:20:32;30.30;;;13.90;;
47922;SDS011;33688;44.354;9.228;2023-03-23T12:39:58;19.85;;;8.85;;
47922;SDS011;33688;44.354;9.228;2023-03-23T12:42:07;19.02;;;8.00;;
47922;SDS011;33688;44.354;9.228;2023-03-23T12:48:04;18.55;;;8.27;;
47922;SDS011;33688;44.354;9.228;2023-03-23T12:50:34;20.50;;;9.00;;
47922;SDS011;33688;44.354;9.228;2023-03-23T12:56:04;18.17;;;8.23;;
47922;SDS011;33688;44.354;9.228;2023-03-23T12:58:53;14.75;;;6.75;;
47922;SDS011;33688;44.354;9.228;2023-03-23T13:01:27;12.63;;;6.55;;
47922;SDS011;33688;44.354;9.228;2023-03-23T13:03:58;11.82;;;6.32;;
47922;SDS011;33688;44.354;9.228;2023-03-23T13:12:25;11.68;;;5.43;;
47922;SDS011;33688;44.354;9.228;2023-03-23T13:23:09;11.02;;;4.68;;
47922;SDS011;33688;44.354;9.228;2023-03-23T13:25:50;11.52;;;5.03;;
47922;SDS011;33688;44.354;9.228;2023-03-23T13:28:31;9.88;;;4.68;;
47922;SDS011;33688;44.354;9.228;2023-03-23T13:33:31;11.80;;;4.75;;
47922;SDS011;33688;44.354;9.228;2023-03-23T13:36:09;7.53;;;3.47;;
47922;SDS011;33688;44.354;9.228;2023-03-23T13:38:36;5.97;;;3.83;;
47922;SDS011;33688;44.354;9.228;2023-03-23T13:43:47;7.15;;;4.10;;
47922;SDS011;33688;44.354;9.228;2023-03-23T13:48:46;6.40;;;3.40;;
47922;SDS011;33688;44.354;9.228;2023-03-23T13:51:26;12.10;;;4.25;;
47922;SDS011;33688;44.354;9.228;2023-03-23T13:57:48;7.80;;;3.30;;
47922;SDS011;33688;44.354;9.228;2023-03-23T13:59:58;7.20;;;3.17;;
47922;SDS011;33688;44.354;9.228;2023-03-23T14:02:39;10.02;;;4.05;;
47922;SDS011;33688;44.354;9.228;2023-03-23T14:05:51;5.05;;;2.63;;
47922;SDS011;33688;44.354;9.228;2023-03-23T14:13:04;7.63;;;3.53;;
47922;SDS011;33688;44.354;9.228;2023-03-23T14:15:37;11.85;;;3.53;;
47922;SDS011;33688;44.354;9.228;2023-03-23T14:18:13;8.02;;;3.83;;
47922;SDS011;33688;44.354;9.228;2023-03-23T14:20:40;8.10;;;3.60;;
47922;SDS011;33688;44.354;9.228;2023-03-23T14:23:12;14.20;;;3.47;;
47922;SDS011;33688;44.354;9.228;2023-03-23T14:25:40;7.90;;;3.65;;
47922;SDS011;33688;44.354;9.228;2023-03-23T14:28:16;6.55;;;2.90;;
47922;SDS011;33688;44.354;9.228;2023-03-23T14:30:42;5.93;;;3.22;;
47922;SDS011;33688;44.354;9.228;2023-03-23T14:33:09;5.88;;;2.83;;
47922;SDS011;33688;44.354;9.228;2023-03-23T14:35:36;7.18;;;2.80;;
47922;SDS011;33688;44.354;9.228;2023-03-23T14:38:06;7.97;;;3.33;;
47922;SDS011;33688;44.354;9.228;2023-03-23T14:40:39;4.85;;;2.95;;
47922;SDS011;33688;44.354;9.228;2023-03-23T14:43:07;7.93;;;3.60;;
47922;SDS011;33688;44.354;9.228;2023-03-23T14:45:34;7.10;;;3.55;;
47922;SDS011;33688;44.354;9.228;2023-03-23T14:48:01;9.65;;;3.00;;
47922;SDS011;33688;44.354;9.228;2023-03-23T14:50:29;7.35;;;2.88;;
47922;SDS011;33688;44.354;9.228;2023-03-23T14:53:13;7.13;;;2.85;;
47922;SDS011;33688;44.354;9.228;2023-03-23T14:55:47;7.00;;;3.15;;
47922;SDS011;33688;44.354;9.228;2023-03-23T14:58:15;10.15;;;3.53;;
47922;SDS011;33688;44.354;9.228;2023-03-23T15:00:45;6.63;;;2.80;;
47922;SDS011;33688;44.354;9.228;2023-03-23T15:03:14;6.20;;;2.73;;
47922;SDS011;33688;44.354;9.228;2023-03-23T15:05:43;9.75;;;3.55;;
47922;SDS011;33688;44.354;9.228;2023-03-23T15:10:42;8.00;;;2.75;;
47922;SDS011;33688;44.354;9.228;2023-03-23T15:13:11;4.90;;;2.65;;
47922;SDS011;33688;44.354;9.228;2023-03-23T15:15:37;5.35;;;3.13;;
47922;SDS011;33688;44.354;9.228;2023-03-23T15:18:03;4.45;;;2.50;;
47922;SDS011;33688;44.354;9.228;2023-03-23T15:20:31;7.18;;;2.97;;
47922;SDS011;33688;44.354;9.228;2023-03-23T15:23:17;5.00;;;2.70;;
47922;SDS011;33688;44.354;9.228;2023-03-23T15:25:52;5.70;;;2.60;;
47922;SDS011;33688;44.354;9.228;2023-03-23T15:28:21;8.35;;;2.58;;
47922;SDS011;33688;44.354;9.228;2023-03-23T15:30:49;8.63;;;3.22;;
47922;SDS011;33688;44.354;9.228;2023-03-23T15:33:16;9.38;;;3.42;;
47922;SDS011;33688;44.354;9.228;2023-03-23T15:35:49;5.97;;;2.40;;
47922;SDS011;33688;44.354;9.228;2023-03-23T15:38:20;6.85;;;2.67;;
47922;SDS011;33688;44.354;9.228;2023-03-23T15:40:54;6.28;;;2.85;;
47922;SDS011;33688;44.354;9.228;2023-03-23T15:43:25;10.45;;;3.00;;
47922;SDS011;33688;44.354;9.228;2023-03-23T15:46:16;5.68;;;2.65;;
47922;SDS011;33688;44.354;9.228;2023-03-23T15:51:22;6.78;;;2.50;;
47922;SDS011;33688;44.354;9.228;2023-03-23T15:53:50;5.68;;;2.67;;
47922;SDS011;33688;44.354;9.228;2023-03-23T15:56:16;6.40;;;3.25;;
47922;SDS011;33688;44.354;9.228;2023-03-23T15:58:42;9.88;;;2.80;;
47922;SDS011;33688;44.354;9.228;2023-03-23T16:01:12;4.90;;;3.08;;
47922;SDS011;33688;44.354;9.228;2023-03-23T16:06:13;11.95;;;2.42;;
47922;SDS011;33688;44.354;9.228;2023-03-23T16:08:40;5.47;;;2.45;;
47922;SDS011;33688;44.354;9.228;2023-03-23T16:11:08;8.43;;;3.00;;
47922;SDS011;33688;44.354;9.228;2023-03-23T16:16:43;7.00;;;2.53;;
47922;SDS011;33688;44.354;9.228;2023-03-23T16:19:11;4.47;;;2.25;;
47922;SDS011;33688;44.354;9.228;2023-03-23T16:21:37;5.65;;;2.53;;
47922;SDS011;33688;44.354;9.228;2023-03-23T16:24:02;4.57;;;2.17;;
47922;SDS011;33688;44.354;9.228;2023-03-23T16:26:28;4.13;;;2.60;;
47922;SDS011;33688;44.354;9.228;2023-03-23T16:28:54;5.43;;;2.53;;
47922;SDS011;33688;44.354;9.228;2023-03-23T16:31:20;4.60;;;2.78;;
47922;SDS011;33688;44.354;9.228;2023-03-23T16:33:46;9.65;;;2.92;;
47922;SDS011;33688;44.354;9.228;2023-03-23T16:36:12;4.78;;;1.98;;
47922;SDS011;33688;44.354;9.228;2023-03-23T16:38:39;8.07;;;2.40;;
47922;SDS011;33688;44.354;9.228;2023-03-23T16:41:05;4.43;;;2.47;;
47922;SDS011;33688;44.354;9.228;2023-03-23T16:43:31;4.10;;;2.45;;
47922;SDS011;33688;44.354;9.228;2023-03-23T16:45:57;4.60;;;2.33;;
47922;SDS011;33688;44.354;9.228;2023-03-23T16:48:23;3.83;;;2.35;;
47922;SDS011;33688;44.354;9.228;2023-03-23T16:50:49;2.72;;;2.10;;
47922;SDS011;33688;44.354;9.228;2023-03-23T16:53:15;4.22;;;2.30;;
47922;SDS011;33688;44.354;9.228;2023-03-23T16:55:43;5.55;;;2.10;;
47922;SDS011;33688;44.354;9.228;2023-03-23T16:58:12;3.50;;;1.90;;
47922;SDS011;33688;44.354;9.228;2023-03-23T17:00:37;3.42;;;2.33;;
47922;SDS011;33688;44.354;9.228;2023-03-23T17:03:04;4.25;;;2.20;;
47922;SDS011;33688;44.354;9.228;2023-03-23T17:05:30;3.80;;;2.40;;
47922;SDS011;33688;44.354;9.228;2023-03-23T17:07:56;6.40;;;1.60;;
47922;SDS011;33688;44.354;9.228;2023-03-23T17:10:26;4.55;;;2.15;;
47922;SDS011;33688;44.354;9.228;2023-03-23T17:12:52;3.97;;;2.40;;
47922;SDS011;33688;44.354;9.228;2023-03-23T17:15:20;3.55;;;2.00;;
47922;SDS011;33688;44.354;9.228;2023-03-23T17:17:45;4.70;;;2.15;;
47922;SDS011;33688;44.354;9.228;2023-03-23T17:20:11;7.43;;;1.90;;
47922;SDS011;33688;44.354;9.228;2023-03-23T17:22:39;3.28;;;2.00;;
47922;SDS011;33688;44.354;9.228;2023-03-23T17:25:07;4.85;;;2.70;;
47922;SDS011;33688;44.354;9.228;2023-03-23T17:27:33;3.13;;;1.90;;
47922;SDS011;33688;44.354;9.228;2023-03-23T17:30:00;7.10;;;2.13;;
47922;SDS011;33688;44.354;9.228;2023-03-23T17:32:26;3.97;;;2.05;;
47922;SDS011;33688;44.354;9.228;2023-03-23T17:34:52;3.75;;;1.95;;
47922;SDS011;33688;44.354;9.228;2023-03-23T17:37:18;3.58;;;2.40;;
47922;SDS011;33688;44.354;9.228;2023-03-23T17:39:45;3.50;;;2.15;;
47922;SDS011;33688;44.354;9.228;2023-03-23T17:42:11;3.25;;;2.00;;
47922;SDS011;33688;44.354;9.228;2023-03-23T17:44:36;7.25;;;2.10;;
47922;SDS011;33688;44.354;9.228;2023-03-23T17:47:02;6.28;;;2.53;;